createdAt,value
2022-11-26T00:00:58.045Z,13.32
2022-11-26T00:05:59.374Z,10.30
2022-11-26T00:11:01.478Z,13.23
2022-11-26T00:16:02.903Z,14.40
2022-11-26T00:21:04.251Z,12.23
2022-11-26T00:26:11.850Z,14.32
2022-11-26T00:31:15.194Z,12.27
2022-11-26T00:36:22.509Z,8.73
2022-11-26T00:41:24.820Z,12.13
2022-11-26T00:46:26.224Z,12.82
2022-11-26T00:51:28.108Z,15.75
2022-11-26T00:56:33.874Z,13.60
2022-11-26T01:01:39.017Z,11.57
2022-11-26T01:06:41.527Z,10.60
2022-11-26T01:11:42.822Z,13.00
2022-11-26T01:16:44.921Z,14.23
2022-11-26T01:21:46.397Z,18.07
2022-11-26T01:26:47.713Z,14.90
2022-11-26T01:31:49.032Z,10.77
2022-11-26T01:36:50.295Z,11.40
2022-11-26T01:42:07.025Z,11.48
2022-11-26T01:47:23.649Z,14.90
2022-11-26T01:52:25.684Z,17.45
2022-11-26T01:57:28.684Z,13.47
2022-11-26T02:02:30.020Z,11.23
2022-11-26T02:07:31.772Z,13.80
2022-11-26T02:12:33.185Z,11.57
2022-11-26T02:17:45.103Z,15.98
2022-11-26T02:22:49.159Z,18.07
2022-11-26T02:27:53.660Z,12.60
2022-11-26T02:33:01.282Z,11.63
2022-11-26T02:38:07.094Z,10.67
2022-11-26T02:43:08.345Z,12.85
2022-11-26T02:48:11.856Z,12.83
2022-11-26T02:53:14.050Z,17.80
2022-11-26T02:58:15.406Z,16.67
2022-11-26T03:03:26.012Z,17.23
2022-11-26T03:08:27.379Z,12.35
2022-11-26T03:13:28.635Z,12.03
2022-11-26T03:18:30.214Z,15.18
2022-11-26T03:23:31.443Z,14.02
2022-11-26T03:28:32.711Z,12.47
2022-11-26T03:33:33.967Z,17.73
2022-11-26T03:38:35.291Z,13.60
2022-11-26T03:43:36.558Z,13.73
2022-11-26T03:48:37.805Z,15.05
2022-11-26T03:53:39.166Z,13.80
2022-11-26T03:58:40.436Z,16.92
2022-11-26T04:03:42.103Z,13.07
2022-11-26T04:08:43.391Z,12.98
2022-11-26T04:13:44.663Z,12.75
2022-11-26T04:18:46.146Z,11.03
2022-11-26T04:23:47.367Z,13.65
2022-11-26T04:28:50.578Z,20.73
2022-11-26T04:33:52.105Z,14.65
2022-11-26T04:38:53.437Z,13.55
2022-11-26T04:43:54.674Z,17.63
2022-11-26T04:48:55.929Z,10.63
2022-11-26T04:54:00.446Z,14.43
2022-11-26T04:59:04.118Z,15.40
2022-11-26T05:04:05.364Z,13.68
2022-11-26T05:09:06.650Z,14.95
2022-11-26T05:14:07.895Z,21.13
2022-11-26T05:19:09.168Z,17.17
2022-11-26T05:24:10.428Z,18.02
2022-11-26T05:29:12.285Z,14.88
2022-11-26T05:34:13.590Z,15.63
2022-11-26T05:39:15.878Z,14.30
2022-11-26T05:44:17.169Z,14.17
2022-11-26T05:49:18.414Z,16.33
2022-11-26T05:54:19.833Z,25.08
2022-11-26T05:59:21.092Z,54.10
2022-11-26T06:04:22.390Z,39.30
2022-11-26T06:09:23.658Z,25.87
2022-11-26T06:14:24.876Z,30.58
2022-11-26T06:19:26.253Z,30.35
2022-11-26T06:24:27.543Z,20.75
2022-11-26T06:29:28.841Z,19.73
2022-11-26T06:34:30.106Z,15.97
2022-11-26T06:39:31.368Z,19.42
2022-11-26T06:44:34.846Z,22.20
2022-11-26T06:49:36.219Z,18.20
2022-11-26T06:54:37.700Z,22.20
2022-11-26T06:59:39.249Z,19.13
2022-11-26T07:04:40.775Z,20.95
2022-11-26T07:09:42.226Z,20.48
2022-11-26T07:14:43.625Z,19.10
2022-11-26T07:19:44.890Z,23.00
2022-11-26T07:24:46.150Z,21.70
2022-11-26T07:29:47.374Z,19.38
2022-11-26T07:34:48.600Z,21.50
2022-11-26T07:39:49.881Z,23.98
2022-11-26T07:44:51.268Z,22.02
2022-11-26T07:49:52.608Z,20.17
2022-11-26T07:54:53.967Z,19.77
2022-11-26T07:59:55.229Z,22.65
2022-11-26T08:04:56.517Z,23.00
2022-11-26T08:09:57.810Z,20.77
2022-11-26T08:14:59.089Z,22.17
2022-11-26T08:20:00.330Z,24.83
2022-11-26T08:25:01.594Z,19.25
2022-11-26T08:30:03.114Z,20.70
2022-11-26T08:35:04.527Z,15.55
2022-11-26T08:40:06.179Z,22.83
2022-11-26T08:45:07.786Z,22.55
2022-11-26T08:50:09.429Z,21.80
2022-11-26T08:55:11.738Z,22.10
2022-11-26T09:00:13.274Z,20.10
2022-11-26T09:05:14.582Z,23.13
2022-11-26T09:10:15.914Z,21.30
2022-11-26T09:15:17.240Z,18.63
2022-11-26T09:20:18.637Z,15.17
2022-11-26T09:25:19.870Z,17.52
2022-11-26T09:30:21.108Z,17.13
2022-11-26T09:35:22.373Z,18.48
2022-11-26T09:40:25.411Z,14.18
2022-11-26T09:45:40.971Z,14.63
2022-11-26T09:50:43.103Z,15.48
2022-11-26T09:55:46.991Z,11.30
2022-11-26T10:00:49.578Z,18.48
2022-11-26T10:05:58.195Z,16.08
2022-11-26T10:11:04.125Z,18.20
2022-11-26T10:16:13.336Z,16.15
2022-11-26T10:21:14.663Z,14.83
2022-11-26T10:26:28.683Z,22.55
2022-11-26T10:31:32.029Z,19.02
2022-11-26T10:36:33.304Z,15.50
2022-11-26T10:41:35.310Z,17.48
2022-11-26T10:46:37.498Z,16.27
2022-11-26T10:51:39.215Z,17.48
2022-11-26T10:56:41.893Z,16.08
2022-11-26T11:01:43.304Z,13.90
2022-11-26T11:06:44.640Z,18.73
2022-11-26T11:11:45.881Z,13.83
2022-11-26T11:16:47.305Z,16.02
2022-11-26T11:21:48.795Z,13.68
2022-11-26T11:26:54.064Z,13.10
2022-11-26T11:31:56.508Z,18.40
2022-11-26T11:36:59.349Z,18.57
2022-11-26T11:42:01.998Z,15.13
2022-11-26T11:47:10.478Z,14.10
2022-11-26T11:52:23.743Z,10.23
2022-11-26T11:57:33.716Z,11.57
2022-11-26T12:02:50.319Z,20.60
2022-11-26T12:07:56.990Z,15.82
2022-11-26T12:13:00.046Z,11.68
2022-11-26T12:18:01.270Z,12.40
2022-11-26T12:23:24.547Z,17.13
2022-11-26T12:28:27.698Z,19.03
2022-11-26T12:33:34.763Z,12.73
2022-11-26T12:38:44.651Z,16.05
2022-11-26T12:43:51.962Z,24.70
2022-11-26T12:49:02.356Z,13.63
2022-11-26T12:54:06.680Z,35.23
2022-11-26T12:59:11.099Z,17.60
2022-11-26T13:04:36.630Z,16.42
2022-11-26T13:09:45.736Z,13.40
2022-11-26T13:14:56.524Z,14.95
2022-11-26T13:20:04.657Z,17.53
2022-11-26T13:25:08.952Z,13.52
2022-11-26T13:30:28.848Z,15.63
2022-11-26T13:35:39.196Z,19.57
2022-11-26T13:40:46.919Z,14.55
2022-11-26T13:46:07.169Z,27.17
2022-11-26T13:51:22.258Z,12.40
2022-11-26T13:56:24.884Z,26.98
2022-11-26T14:01:28.198Z,14.30
2022-11-26T14:06:29.745Z,12.40
2022-11-26T14:11:40.320Z,13.73
2022-11-26T14:17:00.475Z,14.60
2022-11-26T14:22:03.684Z,16.17
2022-11-26T14:27:04.973Z,15.73
2022-11-26T14:32:11.541Z,16.58
2022-11-26T14:37:14.089Z,16.50
2022-11-26T14:42:16.339Z,21.63
2022-11-26T14:47:22.582Z,15.05
2022-11-26T14:52:26.135Z,26.73
2022-11-26T14:57:40.316Z,15.02
2022-11-26T15:02:43.270Z,12.10
2022-11-26T15:07:45.225Z,10.32
2022-11-26T15:12:47.930Z,13.70
2022-11-26T15:17:51.985Z,18.50
2022-11-26T15:22:54.812Z,17.35
2022-11-26T15:28:06.400Z,15.67
2022-11-26T15:33:07.627Z,19.98
2022-11-26T15:38:15.894Z,17.65
2022-11-26T15:43:32.815Z,24.03
2022-11-26T15:48:54.464Z,26.77
2022-11-26T15:53:55.788Z,25.00
2022-11-26T15:58:58.973Z,20.85
2022-11-26T16:04:04.465Z,18.95
2022-11-26T16:09:14.924Z,29.30
2022-11-26T16:14:27.974Z,36.92
2022-11-26T16:19:29.925Z,28.47
2022-11-26T16:24:43.541Z,29.55
2022-11-26T16:29:45.213Z,18.13
2022-11-26T16:34:46.730Z,15.05
2022-11-26T16:39:49.238Z,18.10
2022-11-26T16:44:50.624Z,35.87
2022-11-26T16:49:52.230Z,20.13
2022-11-26T16:54:53.490Z,20.58
2022-11-26T16:59:58.180Z,25.38
2022-11-26T17:04:59.458Z,25.75
2022-11-26T17:10:00.713Z,27.87
2022-11-26T17:15:01.999Z,17.98
2022-11-26T17:20:04.407Z,21.80
2022-11-26T17:25:05.967Z,30.92
2022-11-26T17:30:08.324Z,34.15
2022-11-26T17:35:09.753Z,49.70
2022-11-26T17:40:21.760Z,42.30
2022-11-26T17:45:23.062Z,32.05
2022-11-26T17:50:25.923Z,44.83
2022-11-26T17:55:27.305Z,39.22
2022-11-26T18:00:29.055Z,32.93
2022-11-26T18:05:30.433Z,26.98
2022-11-26T18:10:31.681Z,36.85
2022-11-26T18:15:32.929Z,31.40
2022-11-26T18:20:34.416Z,27.60
2022-11-26T18:25:35.670Z,38.17
2022-11-26T18:30:37.133Z,20.33
2022-11-26T18:35:40.179Z,22.45
2022-11-26T18:40:41.495Z,23.33
2022-11-26T18:45:43.462Z,23.95
2022-11-26T18:50:44.740Z,23.63
2022-11-26T18:55:45.973Z,25.02
2022-11-26T19:00:47.801Z,24.00
2022-11-26T19:05:53.304Z,26.35
2022-11-26T19:10:54.626Z,22.27
2022-11-26T19:15:55.919Z,26.13
2022-11-26T19:20:57.203Z,33.15
2022-11-26T19:25:58.568Z,29.55
2022-11-26T19:31:03.863Z,35.05
2022-11-26T19:36:06.857Z,32.17
2022-11-26T19:41:08.287Z,37.23
2022-11-26T19:46:11.059Z,48.50
2022-11-26T19:51:13.124Z,29.17
2022-11-26T19:56:18.688Z,24.38
2022-11-26T20:01:20.753Z,30.08
2022-11-26T20:06:26.553Z,33.43
2022-11-26T20:11:28.608Z,30.92
2022-11-26T20:16:31.166Z,38.35
2022-11-26T20:21:33.262Z,36.17
2022-11-26T20:26:36.578Z,34.67
2022-11-26T20:31:45.796Z,32.57
2022-11-26T20:36:47.391Z,32.03
2022-11-26T20:41:48.902Z,36.53
2022-11-26T20:46:50.189Z,31.33
2022-11-26T20:51:51.557Z,38.55
2022-11-26T20:56:52.976Z,34.30
2022-11-26T21:01:54.325Z,29.77
2022-11-26T21:06:55.706Z,27.15
2022-11-26T21:11:57.316Z,36.90
2022-11-26T21:16:58.746Z,33.38
2022-11-26T21:22:00.358Z,38.27
2022-11-26T21:27:01.611Z,29.30
2022-11-26T21:32:02.878Z,24.80
2022-11-26T21:37:04.320Z,25.52
2022-11-26T21:42:05.595Z,29.45
2022-11-26T21:47:06.863Z,28.40
2022-11-26T21:52:08.135Z,34.63
2022-11-26T21:57:09.365Z,35.13
2022-11-26T22:02:12.079Z,39.10
2022-11-26T22:07:13.407Z,29.88
2022-11-26T22:12:14.730Z,34.87
2022-11-26T22:17:15.975Z,31.90
2022-11-26T22:22:17.231Z,26.73
2022-11-26T22:27:18.553Z,31.50
2022-11-26T22:32:19.993Z,26.50
2022-11-26T22:37:21.297Z,31.67
2022-11-26T22:42:22.582Z,26.85
2022-11-26T22:47:23.866Z,39.10
2022-11-26T22:52:25.153Z,54.50
2022-11-26T22:57:26.390Z,32.55
2022-11-26T23:02:27.989Z,32.10
2022-11-26T23:07:29.342Z,27.33
2022-11-26T23:12:30.643Z,31.27
2022-11-26T23:17:31.896Z,31.27
2022-11-26T23:22:33.142Z,26.13
2022-11-26T23:27:34.453Z,27.57
2022-11-26T23:32:35.675Z,28.90
2022-11-26T23:37:38.168Z,28.63
2022-11-26T23:42:39.554Z,33.17
2022-11-26T23:47:40.870Z,31.35
2022-11-26T23:52:42.136Z,35.13
2022-11-26T23:57:43.372Z,36.97
